Aviation Digital Data Service (ADDS)

Output produced by METARs form (1552 UTC 23 April 2017)
found at http://www.aviationweather.gov/adds/metars/
 
KESN 231550Z 10007KT 10SM SCT065 BKN120 13/05 A3016